createdAt,value
2019-02-20T00:00:25.261Z,6.70
2019-02-20T00:02:53.509Z,7.83
2019-02-20T00:05:22.062Z,8.40
2019-02-20T00:07:50.447Z,7.53
2019-02-20T00:10:18.709Z,8.60
2019-02-20T00:12:46.892Z,8.23
2019-02-20T00:15:15.127Z,8.13
2019-02-20T00:17:43.401Z,7.60
2019-02-20T00:20:11.611Z,8.30
2019-02-20T00:22:40.514Z,7.90
2019-02-20T00:25:09.668Z,8.10
2019-02-20T00:27:37.847Z,8.07
2019-02-20T00:30:07.299Z,8.93
2019-02-20T00:32:35.520Z,8.43
2019-02-20T00:35:04.380Z,8.20
2019-02-20T00:37:32.601Z,8.30
2019-02-20T00:40:00.816Z,7.60
2019-02-20T00:42:29.069Z,7.53
2019-02-20T00:44:59.580Z,8.10
2019-02-20T00:47:44.514Z,7.47
2019-02-20T00:50:13.896Z,7.63
2019-02-20T00:52:50.276Z,7.60
2019-02-20T00:55:18.780Z,7.77
2019-02-20T00:57:46.962Z,7.57
2019-02-20T01:00:16.359Z,8.10
2019-02-20T01:02:44.532Z,7.10
2019-02-20T01:05:12.777Z,7.30
2019-02-20T01:07:41.533Z,7.97
2019-02-20T01:10:09.744Z,6.90
2019-02-20T01:12:37.919Z,8.30
2019-02-20T01:15:07.674Z,8.17
2019-02-20T01:17:35.886Z,7.03
2019-02-20T01:20:04.873Z,7.40
2019-02-20T01:22:33.051Z,7.70
2019-02-20T01:25:03.192Z,8.20
2019-02-20T01:27:31.175Z,7.67
2019-02-20T01:29:59.394Z,8.23
2019-02-20T01:32:27.689Z,8.73
2019-02-20T01:34:55.871Z,8.30
2019-02-20T01:37:24.067Z,7.97
2019-02-20T01:39:52.272Z,7.83
2019-02-20T01:42:20.463Z,7.07
2019-02-20T01:44:48.708Z,6.97
2019-02-20T01:47:16.913Z,7.03
2019-02-20T01:49:45.093Z,7.37
2019-02-20T01:52:13.333Z,7.50
2019-02-20T01:54:41.510Z,7.40
2019-02-20T01:57:09.740Z,6.73
2019-02-20T01:59:38.019Z,6.70
2019-02-20T02:02:06.241Z,6.70
2019-02-20T02:04:34.413Z,7.13
2019-02-20T02:07:02.597Z,5.63
2019-02-20T02:09:30.809Z,5.80
2019-02-20T02:11:59.021Z,5.63
2019-02-20T02:14:27.235Z,5.77
2019-02-20T02:16:55.424Z,5.40
2019-02-20T02:19:23.604Z,5.60
2019-02-20T02:21:51.799Z,5.63
2019-02-20T02:24:20.005Z,5.93
2019-02-20T02:26:48.184Z,5.20
2019-02-20T02:29:16.397Z,4.70
2019-02-20T02:31:44.641Z,5.00
2019-02-20T02:34:12.810Z,4.30
2019-02-20T02:36:42.659Z,4.37
2019-02-20T02:39:10.866Z,4.30
2019-02-20T02:41:39.060Z,4.30
2019-02-20T02:44:07.262Z,4.83
2019-02-20T02:46:35.476Z,3.87
2019-02-20T02:49:03.684Z,4.13
2019-02-20T02:51:31.864Z,4.70
2019-02-20T02:54:00.045Z,4.27
2019-02-20T02:56:28.242Z,4.63
2019-02-20T02:58:56.533Z,4.67
2019-02-20T03:01:24.724Z,4.20
2019-02-20T03:03:52.972Z,3.70
2019-02-20T03:06:21.574Z,3.97
2019-02-20T03:08:49.870Z,4.40
2019-02-20T03:11:18.365Z,3.80
2019-02-20T03:13:46.595Z,4.60
2019-02-20T03:16:14.768Z,4.70
2019-02-20T03:18:43.016Z,4.50
2019-02-20T03:21:11.233Z,4.60
2019-02-20T03:23:40.416Z,4.70
2019-02-20T03:26:09.002Z,4.47
2019-02-20T03:28:37.181Z,4.33
2019-02-20T03:31:05.429Z,4.63
2019-02-20T03:33:33.662Z,4.60
2019-02-20T03:36:01.871Z,4.37
2019-02-20T03:38:30.754Z,4.50
2019-02-20T03:40:59.117Z,4.60
2019-02-20T03:43:27.294Z,4.57
2019-02-20T03:45:55.521Z,5.70
2019-02-20T03:48:23.688Z,4.23
2019-02-20T03:50:51.868Z,5.93
2019-02-20T03:53:21.152Z,5.20
2019-02-20T03:55:49.327Z,5.30
2019-02-20T03:58:17.590Z,5.17
2019-02-20T04:00:45.788Z,5.33
2019-02-20T04:03:14.081Z,5.00
2019-02-20T04:05:42.261Z,5.43
2019-02-20T04:08:10.505Z,5.43
2019-02-20T04:10:38.715Z,5.03
2019-02-20T04:13:06.935Z,6.13
2019-02-20T04:15:35.138Z,6.07
2019-02-20T04:18:03.353Z,5.60
2019-02-20T04:20:31.540Z,5.47
2019-02-20T04:22:59.825Z,5.07
2019-02-20T04:25:28.041Z,6.40
2019-02-20T04:27:56.289Z,5.43
2019-02-20T04:30:24.525Z,6.40
2019-02-20T04:32:52.737Z,6.60
2019-02-20T04:35:20.973Z,6.00
2019-02-20T04:37:49.205Z,6.43
2019-02-20T04:40:17.425Z,6.57
2019-02-20T04:42:45.642Z,7.07
2019-02-20T04:45:13.877Z,6.80
2019-02-20T04:47:42.085Z,7.00
2019-02-20T04:50:10.281Z,6.87
2019-02-20T04:52:38.460Z,7.60
2019-02-20T04:55:06.716Z,6.90
2019-02-20T04:57:35.007Z,8.00
2019-02-20T05:00:03.914Z,8.10
2019-02-20T05:02:32.154Z,8.20
2019-02-20T05:05:01.298Z,6.83
2019-02-20T05:07:29.475Z,7.37
2019-02-20T05:09:57.691Z,6.80
2019-02-20T05:12:25.935Z,8.20
2019-02-20T05:14:54.140Z,8.07
2019-02-20T05:17:22.363Z,6.90
2019-02-20T05:19:50.578Z,8.33
2019-02-20T05:22:18.863Z,8.53
2019-02-20T05:24:47.044Z,8.00
2019-02-20T05:27:15.260Z,7.80
2019-02-20T05:29:43.464Z,7.80
2019-02-20T05:32:11.656Z,8.80
2019-02-20T05:34:39.860Z,7.70
2019-02-20T05:37:08.069Z,8.10
2019-02-20T05:39:36.273Z,7.17
2019-02-20T05:42:07.309Z,9.00
2019-02-20T05:44:35.550Z,7.53
2019-02-20T05:47:03.766Z,7.80
2019-02-20T05:49:32.001Z,8.87
2019-02-20T05:52:00.180Z,8.57
2019-02-20T05:54:34.647Z,8.30
2019-02-20T05:56:59.235Z,7.80
2019-02-20T05:59:27.420Z,8.30
2019-02-20T06:01:55.629Z,8.47
2019-02-20T06:04:23.873Z,8.10
2019-02-20T06:06:52.078Z,7.80
2019-02-20T06:09:20.270Z,7.77
2019-02-20T06:11:48.511Z,7.23
2019-02-20T06:14:16.688Z,8.03
2019-02-20T06:16:44.905Z,8.40
2019-02-20T06:19:13.124Z,7.80
2019-02-20T06:21:41.317Z,7.47
2019-02-20T06:24:09.540Z,8.37
2019-02-20T06:26:37.800Z,8.30
2019-02-20T06:29:06.016Z,7.53
2019-02-20T06:31:34.225Z,7.60
2019-02-20T06:34:02.445Z,7.67
2019-02-20T06:36:30.650Z,8.13
2019-02-20T06:38:59.195Z,8.00
2019-02-20T06:41:27.401Z,8.07
2019-02-20T06:43:55.619Z,9.10
2019-02-20T06:46:23.796Z,7.90
2019-02-20T06:48:52.023Z,7.27
2019-02-20T06:51:20.231Z,8.05
2019-02-20T06:53:48.470Z,6.80
2019-02-20T06:56:16.647Z,7.70
2019-02-20T06:58:44.831Z,7.27
2019-02-20T07:01:13.049Z,7.47
2019-02-20T07:03:41.253Z,8.00
2019-02-20T07:06:16.732Z,7.80
2019-02-20T07:08:49.145Z,8.15
2019-02-20T07:11:24.577Z,7.10
2019-02-20T07:13:57.255Z,7.50
2019-02-20T07:16:27.016Z,7.15
2019-02-20T07:18:56.796Z,8.17
2019-02-20T07:21:29.292Z,7.47
2019-02-20T07:24:02.111Z,8.53
2019-02-20T07:26:31.925Z,7.80
2019-02-20T07:29:01.669Z,7.77
2019-02-20T07:31:29.886Z,7.17
2019-02-20T07:33:58.076Z,7.70
2019-02-20T07:36:26.301Z,7.03
2019-02-20T07:38:54.588Z,8.10
2019-02-20T07:41:22.761Z,7.50
2019-02-20T07:43:50.985Z,7.43
2019-02-20T07:46:19.225Z,7.73
2019-02-20T07:48:47.429Z,7.30
2019-02-20T07:51:15.621Z,7.40
2019-02-20T07:53:43.845Z,7.33
2019-02-20T07:56:12.049Z,7.30
2019-02-20T07:58:40.293Z,7.17
2019-02-20T08:01:08.588Z,8.00
2019-02-20T08:03:36.813Z,8.03
2019-02-20T08:06:05.030Z,6.80
2019-02-20T08:08:33.358Z,7.80
2019-02-20T08:11:01.536Z,7.57
2019-02-20T08:13:38.881Z,6.90
2019-02-20T08:15:59.655Z,7.67
2019-02-20T08:18:27.893Z,7.03
2019-02-20T08:20:56.175Z,7.53
2019-02-20T08:23:24.394Z,7.30
2019-02-20T08:25:52.619Z,7.33
2019-02-20T08:28:20.799Z,7.00
2019-02-20T08:30:48.998Z,7.83
2019-02-20T08:33:17.209Z,6.80
2019-02-20T08:35:45.426Z,7.37
2019-02-20T08:38:13.632Z,7.60
2019-02-20T08:40:41.819Z,7.13
2019-02-20T08:43:10.025Z,7.00
2019-02-20T08:45:38.215Z,6.97
2019-02-20T08:48:06.464Z,7.00
2019-02-20T08:50:34.709Z,7.30
2019-02-20T08:53:02.913Z,7.60
2019-02-20T08:55:32.408Z,7.50
2019-02-20T08:58:00.769Z,7.07
2019-02-20T09:00:28.980Z,6.23
2019-02-20T09:02:57.201Z,7.87
2019-02-20T09:05:25.469Z,7.60
2019-02-20T09:07:53.649Z,8.30
2019-02-20T09:10:21.857Z,8.00
2019-02-20T09:12:50.089Z,7.40
2019-02-20T09:15:18.260Z,7.07
2019-02-20T09:17:46.443Z,7.93
2019-02-20T09:20:14.631Z,7.50
2019-02-20T09:22:42.857Z,7.53
2019-02-20T09:25:19.515Z,7.77
2019-02-20T09:27:41.140Z,8.60
2019-02-20T09:30:13.165Z,7.50
2019-02-20T09:32:41.380Z,8.20
2019-02-20T09:35:09.714Z,8.40
2019-02-20T09:37:37.951Z,7.40
2019-02-20T09:40:07.741Z,8.53
2019-02-20T09:42:36.424Z,7.57
2019-02-20T09:45:06.152Z,8.20
2019-02-20T09:47:34.360Z,8.67
2019-02-20T09:50:02.599Z,8.23
2019-02-20T09:52:30.809Z,9.27
2019-02-20T09:54:58.987Z,8.80
2019-02-20T09:57:27.229Z,8.57
2019-02-20T09:59:55.444Z,8.37
2019-02-20T10:02:23.653Z,8.00
2019-02-20T10:04:51.841Z,9.23
2019-02-20T10:07:20.026Z,8.20
2019-02-20T10:12:15.608Z,8.33
2019-02-20T10:14:43.865Z,8.20
2019-02-20T10:17:12.052Z,8.80
2019-02-20T10:19:40.276Z,8.40
2019-02-20T10:22:08.481Z,8.13
2019-02-20T10:24:36.705Z,8.20
2019-02-20T10:27:04.949Z,9.13
2019-02-20T10:29:33.178Z,9.30
2019-02-20T10:32:02.873Z,8.80
2019-02-20T10:34:31.153Z,7.60
2019-02-20T10:36:59.379Z,8.80
2019-02-20T10:39:27.593Z,8.73
2019-02-20T10:41:55.837Z,8.43
2019-02-20T10:44:24.016Z,8.47
2019-02-20T10:46:52.265Z,8.27
2019-02-20T10:49:20.467Z,9.20
2019-02-20T10:51:48.647Z,7.90
2019-02-20T10:54:16.873Z,8.10
2019-02-20T10:56:45.125Z,8.73
2019-02-20T10:59:13.308Z,8.43
2019-02-20T11:01:41.533Z,8.60
2019-02-20T11:04:09.732Z,9.47
2019-02-20T11:06:37.959Z,8.10
2019-02-20T11:09:06.236Z,9.00
2019-02-20T11:11:34.454Z,7.37
2019-02-20T11:14:02.631Z,8.63
2019-02-20T11:16:30.838Z,8.27
2019-02-20T11:18:59.036Z,8.57
2019-02-20T11:21:27.264Z,8.00
2019-02-20T11:23:55.535Z,8.60
2019-02-20T11:26:23.733Z,8.20
2019-02-20T11:28:51.928Z,8.43
2019-02-20T11:31:21.009Z,8.43
2019-02-20T11:33:49.216Z,9.90
2019-02-20T11:36:17.436Z,8.10
2019-02-20T11:38:45.640Z,8.10
2019-02-20T11:41:13.897Z,8.80
2019-02-20T11:43:42.075Z,8.63
2019-02-20T11:46:10.288Z,9.13
2019-02-20T11:48:38.467Z,8.83
2019-02-20T11:51:06.692Z,8.60
2019-02-20T11:53:37.209Z,8.40
2019-02-20T11:56:05.134Z,9.67
2019-02-20T11:58:33.312Z,8.67
2019-02-20T12:01:01.541Z,9.83
2019-02-20T12:03:29.753Z,8.63
2019-02-20T12:05:57.993Z,9.40
2019-02-20T12:08:26.213Z,10.57
2019-02-20T12:10:54.926Z,9.83
2019-02-20T12:13:23.251Z,9.20
2019-02-20T12:15:51.448Z,9.50
2019-02-20T12:18:19.665Z,9.57
2019-02-20T12:20:47.885Z,8.97
2019-02-20T12:23:16.200Z,8.97
2019-02-20T12:25:44.400Z,9.63
2019-02-20T12:28:12.620Z,9.37
2019-02-20T12:30:40.905Z,8.90
2019-02-20T12:33:09.082Z,9.70
2019-02-20T12:35:37.333Z,10.10
2019-02-20T12:38:05.504Z,9.10
2019-02-20T12:40:33.719Z,9.50
2019-02-20T12:43:01.925Z,9.77
2019-02-20T12:45:30.185Z,10.43
2019-02-20T12:47:58.360Z,9.13
2019-02-20T12:50:26.577Z,10.00
2019-02-20T12:52:54.792Z,10.57
2019-02-20T12:55:23.044Z,9.73
2019-02-20T12:57:51.256Z,10.03
2019-02-20T13:00:20.341Z,9.20
2019-02-20T13:02:48.581Z,9.20
2019-02-20T13:05:16.861Z,8.20
2019-02-20T13:10:12.432Z,9.20
2019-02-20T13:12:40.668Z,9.30
2019-02-20T13:15:09.845Z,8.70
2019-02-20T13:17:38.067Z,8.47
2019-02-20T13:20:07.792Z,9.33
2019-02-20T13:22:36.007Z,7.90
2019-02-20T13:25:05.193Z,7.97
2019-02-20T13:27:33.714Z,8.43
2019-02-20T13:30:02.005Z,9.07
2019-02-20T13:32:30.182Z,8.80
2019-02-20T13:34:58.392Z,8.77
2019-02-20T13:37:26.571Z,8.77
2019-02-20T13:39:54.781Z,8.73
2019-02-20T13:42:23.133Z,9.23
2019-02-20T13:44:51.421Z,8.90
2019-02-20T13:47:19.640Z,10.25
2019-02-20T13:49:47.824Z,10.30
2019-02-20T13:52:16.040Z,9.73
2019-02-20T13:54:44.225Z,8.83
2019-02-20T13:57:12.517Z,8.43
2019-02-20T13:59:40.801Z,8.70
2019-02-20T14:02:09.064Z,8.40
2019-02-20T14:04:37.252Z,9.20
2019-02-20T14:07:05.474Z,8.87
2019-02-20T14:09:33.728Z,8.80
2019-02-20T14:12:01.943Z,9.60
2019-02-20T14:14:30.180Z,9.07
2019-02-20T14:16:58.359Z,9.45
2019-02-20T14:19:26.575Z,10.33
2019-02-20T14:21:54.867Z,9.83
2019-02-20T14:24:23.156Z,10.50
2019-02-20T14:26:51.451Z,9.03
2019-02-20T14:29:19.733Z,9.60
2019-02-20T14:31:49.581Z,10.37
2019-02-20T14:34:18.105Z,9.83
2019-02-20T14:36:46.373Z,9.87
2019-02-20T14:39:14.559Z,10.23
2019-02-20T14:41:42.857Z,10.27
2019-02-20T14:44:11.145Z,11.10
2019-02-20T14:46:39.438Z,9.53
2019-02-20T14:49:09.436Z,10.57
2019-02-20T14:51:37.825Z,9.57
2019-02-20T14:54:06.072Z,8.37
2019-02-20T14:56:34.361Z,9.83
2019-02-20T14:59:02.541Z,8.90
2019-02-20T15:01:30.832Z,8.37
2019-02-20T15:03:59.126Z,9.17
2019-02-20T15:06:27.728Z,9.30
2019-02-20T15:08:56.026Z,7.83
2019-02-20T15:11:24.323Z,9.30
2019-02-20T15:13:54.976Z,8.93
2019-02-20T15:16:22.451Z,8.40
2019-02-20T15:18:50.688Z,8.90
2019-02-20T15:21:18.876Z,10.07
2019-02-20T15:23:47.225Z,8.97
2019-02-20T15:26:15.484Z,8.90
2019-02-20T15:28:43.733Z,9.20
2019-02-20T15:31:11.988Z,8.90
2019-02-20T15:33:40.244Z,8.60
2019-02-20T15:36:08.462Z,10.13
2019-02-20T15:38:36.706Z,9.60
2019-02-20T15:41:04.960Z,8.83
2019-02-20T15:43:33.248Z,9.33
2019-02-20T15:46:01.510Z,9.03
2019-02-20T15:48:29.760Z,8.97
2019-02-20T15:50:58.041Z,7.90
2019-02-20T15:53:26.255Z,8.67
2019-02-20T15:55:54.519Z,9.20
2019-02-20T15:58:22.700Z,9.37
2019-02-20T16:00:50.984Z,9.47
2019-02-20T16:03:19.163Z,8.90
2019-02-20T16:05:47.363Z,8.77
2019-02-20T16:08:15.612Z,9.40
2019-02-20T16:10:43.832Z,9.03
2019-02-20T16:13:12.113Z,9.30
2019-02-20T16:15:40.489Z,8.90
2019-02-20T16:18:08.672Z,9.70
2019-02-20T16:20:36.989Z,9.70
2019-02-20T16:23:05.295Z,10.33
2019-02-20T16:25:33.613Z,9.80
2019-02-20T16:28:01.873Z,10.23
2019-02-20T16:30:30.097Z,9.70
2019-02-20T16:32:58.351Z,9.87
2019-02-20T16:35:26.633Z,10.37
2019-02-20T16:37:54.931Z,10.20
2019-02-20T16:40:23.141Z,10.97
2019-02-20T16:42:51.434Z,9.80
2019-02-20T16:45:23.628Z,11.20
2019-02-20T16:47:52.405Z,10.70
2019-02-20T16:50:20.621Z,10.60
2019-02-20T16:52:48.980Z,11.00
2019-02-20T16:55:22.402Z,11.57
2019-02-20T16:57:55.930Z,11.37
2019-02-20T17:00:18.148Z,10.13
2019-02-20T17:02:46.375Z,10.47
2019-02-20T17:05:16.588Z,11.10
2019-02-20T17:07:44.813Z,10.77
2019-02-20T17:10:14.260Z,10.67
2019-02-20T17:12:42.545Z,10.80
2019-02-20T17:15:14.692Z,11.57
2019-02-20T17:17:43.121Z,11.20
2019-02-20T17:20:18.301Z,11.13
2019-02-20T17:22:46.850Z,11.80
2019-02-20T17:25:15.415Z,11.30
2019-02-20T17:27:43.693Z,11.60
2019-02-20T17:30:13.553Z,10.53
2019-02-20T17:32:41.808Z,10.03
2019-02-20T17:35:10.233Z,10.83
2019-02-20T17:37:38.589Z,11.30
2019-02-20T17:40:10.237Z,11.00
2019-02-20T17:42:38.530Z,10.83
2019-02-20T17:45:08.353Z,10.57
2019-02-20T17:47:36.595Z,11.50
2019-02-20T17:50:06.725Z,10.20
2019-02-20T17:52:34.981Z,10.67
2019-02-20T17:55:03.960Z,10.60
2019-02-20T17:57:32.176Z,10.10
2019-02-20T18:00:00.387Z,10.00
2019-02-20T18:02:28.694Z,10.60
2019-02-20T18:04:56.931Z,10.50
2019-02-20T18:07:25.234Z,11.20
2019-02-20T18:09:53.408Z,10.90
2019-02-20T18:12:21.650Z,10.37
2019-02-20T18:14:49.857Z,10.03
2019-02-20T18:17:18.123Z,11.33
2019-02-20T18:19:46.373Z,10.77
2019-02-20T18:22:14.592Z,11.07
2019-02-20T18:24:42.810Z,10.80
2019-02-20T18:27:10.997Z,10.30
2019-02-20T18:29:39.217Z,9.30
2019-02-20T18:32:07.422Z,9.20
2019-02-20T18:34:35.712Z,9.57
2019-02-20T18:37:04.006Z,9.87
2019-02-20T18:39:32.298Z,9.00
2019-02-20T18:42:00.539Z,10.10
2019-02-20T18:44:28.804Z,9.97
2019-02-20T18:46:57.082Z,12.63
2019-02-20T18:49:25.344Z,9.00
2019-02-20T18:51:53.551Z,8.80
2019-02-20T18:54:21.828Z,8.23
2019-02-20T18:56:50.079Z,9.03
2019-02-20T18:59:18.285Z,8.37
2019-02-20T19:01:46.528Z,8.80
2019-02-20T19:04:14.699Z,9.00
2019-02-20T19:06:42.926Z,8.50
2019-02-20T19:09:12.764Z,7.90
2019-02-20T19:11:57.826Z,8.00
2019-02-20T19:14:45.918Z,8.10
2019-02-20T19:17:27.717Z,7.33
2019-02-20T19:19:57.467Z,9.30
2019-02-20T19:22:44.084Z,8.23
2019-02-20T19:25:19.551Z,9.00
2019-02-20T19:27:58.244Z,8.20
2019-02-20T19:30:27.977Z,9.03
2019-02-20T19:33:00.500Z,9.80
2019-02-20T19:35:33.093Z,8.40
2019-02-20T19:38:06.547Z,8.27
2019-02-20T19:40:46.590Z,10.07
2019-02-20T19:43:27.050Z,9.67
2019-02-20T19:45:50.934Z,8.67
2019-02-20T19:48:23.677Z,9.20
2019-02-20T19:51:01.696Z,9.33
2019-02-20T19:53:30.882Z,8.77
2019-02-20T19:56:07.623Z,9.53
2019-02-20T19:58:37.572Z,9.33
2019-02-20T20:01:19.429Z,9.23
2019-02-20T20:03:58.260Z,8.77
2019-02-20T20:06:28.024Z,9.03
2019-02-20T20:09:09.996Z,9.50
2019-02-20T20:11:45.720Z,8.57
2019-02-20T20:14:24.805Z,8.07
2019-02-20T20:17:09.628Z,8.80
2019-02-20T20:19:39.423Z,9.20
2019-02-20T20:22:09.171Z,8.70
2019-02-20T20:24:41.864Z,8.83
2019-02-20T20:27:17.738Z,8.10
2019-02-20T20:29:50.211Z,7.97
2019-02-20T20:32:25.740Z,8.10
2019-02-20T20:35:15.601Z,8.03
2019-02-20T20:37:53.993Z,8.30
2019-02-20T20:40:29.454Z,8.17
2019-02-20T20:43:02.130Z,7.90
2019-02-20T20:45:47.134Z,7.50
2019-02-20T20:48:33.453Z,7.40
2019-02-20T20:51:18.124Z,7.30
2019-02-20T20:53:47.880Z,7.90
2019-02-20T20:56:23.776Z,7.70
2019-02-20T20:58:53.529Z,7.42
2019-02-20T21:01:40.144Z,7.70
2019-02-20T21:04:26.582Z,7.70
2019-02-20T21:06:56.323Z,6.80
2019-02-20T21:09:28.936Z,7.40
2019-02-20T21:11:58.660Z,7.50
2019-02-20T21:14:43.613Z,7.60
2019-02-20T21:17:15.872Z,8.13
2019-02-20T21:19:50.494Z,7.30
2019-02-20T21:22:28.971Z,8.50
2019-02-20T21:25:10.944Z,7.80
2019-02-20T21:27:57.264Z,7.20
2019-02-20T21:30:39.120Z,7.50
2019-02-20T21:33:18.260Z,7.00
2019-02-20T21:35:54.276Z,7.60
2019-02-20T21:38:29.876Z,6.57
2019-02-20T21:40:59.637Z,7.20
2019-02-20T21:43:41.281Z,7.53
2019-02-20T21:46:27.957Z,7.30
2019-02-20T21:49:14.447Z,7.80
2019-02-20T21:51:53.272Z,7.40
2019-02-20T21:54:39.582Z,7.03
2019-02-20T21:57:12.469Z,7.80
2019-02-20T21:59:42.213Z,7.70
2019-02-20T22:02:22.308Z,7.40
2019-02-20T22:05:01.170Z,6.90
2019-02-20T22:07:38.522Z,8.00
2019-02-20T22:10:08.267Z,7.50
2019-02-20T22:12:50.359Z,7.80
2019-02-20T22:15:14.810Z,7.50
2019-02-20T22:17:50.366Z,8.20
2019-02-20T22:20:22.892Z,6.90
2019-02-20T22:23:01.837Z,7.63
2019-02-20T22:25:34.453Z,7.30
2019-02-20T22:28:07.154Z,7.50
2019-02-20T22:30:45.729Z,6.90
2019-02-20T22:33:18.454Z,7.80
2019-02-20T22:35:48.205Z,8.47
2019-02-20T22:38:36.381Z,8.23
2019-02-20T22:41:08.698Z,10.30
2019-02-20T22:43:44.497Z,10.40
2019-02-20T22:46:14.289Z,11.88
2019-02-20T22:48:56.223Z,10.37
2019-02-20T22:51:34.628Z,10.93
2019-02-20T22:54:04.348Z,10.00
2019-02-20T22:56:34.105Z,9.30
2019-02-20T22:59:20.268Z,10.85
2019-02-20T23:02:06.810Z,10.40
2019-02-20T23:04:36.558Z,9.80
2019-02-20T23:07:08.963Z,10.80
2019-02-20T23:09:38.721Z,9.13
2019-02-20T23:12:17.425Z,8.60
2019-02-20T23:14:57.782Z,8.70
2019-02-20T23:17:27.253Z,10.10
2019-02-20T23:19:55.913Z,10.63
2019-02-20T23:22:24.104Z,9.63
2019-02-20T23:27:46.161Z,8.40
2019-02-20T23:30:14.418Z,10.00
2019-02-20T23:32:43.665Z,9.57
2019-02-20T23:35:11.859Z,10.30
2019-02-20T23:37:40.149Z,7.63
2019-02-20T23:40:09.241Z,6.20
2019-02-20T23:42:37.441Z,7.53
2019-02-20T23:45:06.642Z,8.00
2019-02-20T23:47:34.825Z,7.40
2019-02-20T23:50:03.714Z,7.30
2019-02-20T23:52:31.948Z,8.30
2019-02-20T23:55:00.443Z,7.23
2019-02-20T23:57:28.706Z,7.33
2019-02-20T23:59:56.914Z,8.00
